Godman Army Air Field
KFTK : now visible

Airfield :











YOU CAN JOIN US ON...

 
LOGIN :

Register | Disclaimer

   EN    FR    IT 

 









Legend :    VFR   Marginal VFR   IFR   Intensive IFR   Very Intensive IFR
Visi :
Ceiling :
>= 8 km
>= 3000ft
5 to 8 km
1000 to 3000 ft
1500m to 5 km
500 to 1000 ft
800 to 1500m
200 to 500 ft
< 800m
< 200 ft
Symbols :   Thunderstorms  Fog  Heavy snow  Heavy precipitations  Wind > 20 kt






- Airport Elevation : 756 ft


KFTK - Godman Army Air Field

CURRENT METAR :
  • 090138Z AUTO 00000KT 10SM CLR 23/21 A2993 RMK AO2 SLP131

EXPIRED METARs :
  • 090056Z AUTO 00000KT 10SM CLR 25/21 A2991 RMK AO2 SLP124 T02460209
  • 082356Z AUTO 30004KT 10SM CLR 26/21 A2991 RMK AO2 SLP124 T02560214 10333 20254 55012
  • 082256Z AUTO 31004KT 10SM CLR 27/21 A2991 RMK AO2 SLP125 T02730213

TAF TAF KFTK
Valid from the 09 at 01:00 until the 10 at 07:00 UTC


090100Z 0901/1007 15006KT 9999 SKC QNH2986INS
TEMPO 0907/0911 2400 BR
BECMG 0915/0916 29006KT 9000 -SHRA SCT030 QNH2994INS
TEMPO 0917/0923 29010G15KT 6000 -TSRA BKN035CB
BECMG 1000/1001 VRB06KT 9999 NSW SCT040 QNH2990INS TX32/0921Z TN23/0911Z
KZID FIR / North America



MET'MAP, your aeronautical weather chart ! - Copyright ORBIFLY December 2007 - Disclaimer

ORBIFLY MET'MAP TEAM :

Programming & Development : Alexandra Zaïnal
Concept & original design : Baudouin d'Aumeries
Assistance for programming : Marc-Olivier Méhu
Technical & hardware support : Manuel Goepfert

Contact : metmap@orbifly.com




SOURCES & CREDITS :

   NOAA       Earth
Advisory